sensor_id;sensor_type;location;lat;lon;timestamp;P1;durP1;ratioP1;P2;durP2;ratioP2
79130;SDS011;72396;45.194;9.142;2024-01-16T00:02:10;39.80;;;22.08;;
79130;SDS011;72396;45.194;9.142;2024-01-16T00:04:38;38.63;;;21.02;;
79130;SDS011;72396;45.194;9.142;2024-01-16T00:07:04;42.22;;;21.65;;
79130;SDS011;72396;45.194;9.142;2024-01-16T00:09:32;40.28;;;20.63;;
79130;SDS011;72396;45.194;9.142;2024-01-16T00:11:59;37.33;;;20.50;;
79130;SDS011;72396;45.194;9.142;2024-01-16T00:14:25;40.55;;;21.52;;
79130;SDS011;72396;45.194;9.142;2024-01-16T00:16:50;42.25;;;22.40;;
79130;SDS011;72396;45.194;9.142;2024-01-16T00:19:15;44.15;;;21.15;;
79130;SDS011;72396;45.194;9.142;2024-01-16T00:21:41;40.88;;;21.20;;
79130;SDS011;72396;45.194;9.142;2024-01-16T00:24:08;40.20;;;20.63;;
79130;SDS011;72396;45.194;9.142;2024-01-16T00:26:33;37.00;;;20.63;;
79130;SDS011;72396;45.194;9.142;2024-01-16T00:28:59;42.65;;;22.80;;
79130;SDS011;72396;45.194;9.142;2024-01-16T00:31:25;41.63;;;21.05;;
79130;SDS011;72396;45.194;9.142;2024-01-16T00:33:51;44.58;;;22.15;;
79130;SDS011;72396;45.194;9.142;2024-01-16T00:36:16;38.83;;;22.23;;
79130;SDS011;72396;45.194;9.142;2024-01-16T00:38:41;37.88;;;19.90;;
79130;SDS011;72396;45.194;9.142;2024-01-16T00:41:07;38.08;;;19.83;;
79130;SDS011;72396;45.194;9.142;2024-01-16T00:43:32;38.17;;;21.52;;
79130;SDS011;72396;45.194;9.142;2024-01-16T00:46:00;40.95;;;22.42;;
79130;SDS011;72396;45.194;9.142;2024-01-16T00:48:25;37.55;;;21.67;;
79130;SDS011;72396;45.194;9.142;2024-01-16T00:50:51;40.13;;;21.33;;
79130;SDS011;72396;45.194;9.142;2024-01-16T00:53:16;40.08;;;21.40;;
79130;SDS011;72396;45.194;9.142;2024-01-16T00:55:42;39.85;;;21.73;;
79130;SDS011;72396;45.194;9.142;2024-01-16T00:58:07;40.35;;;23.65;;
79130;SDS011;72396;45.194;9.142;2024-01-16T01:00:33;42.45;;;23.73;;
79130;SDS011;72396;45.194;9.142;2024-01-16T01:03:00;41.50;;;24.52;;
79130;SDS011;72396;45.194;9.142;2024-01-16T01:05:25;37.22;;;22.92;;
79130;SDS011;72396;45.194;9.142;2024-01-16T01:07:56;44.33;;;21.38;;
79130;SDS011;72396;45.194;9.142;2024-01-16T01:10:22;42.35;;;22.42;;
79130;SDS011;72396;45.194;9.142;2024-01-16T01:12:48;42.28;;;21.10;;
79130;SDS011;72396;45.194;9.142;2024-01-16T01:15:14;38.85;;;20.40;;
79130;SDS011;72396;45.194;9.142;2024-01-16T01:17:40;40.38;;;20.60;;
79130;SDS011;72396;45.194;9.142;2024-01-16T01:20:06;41.78;;;23.10;;
79130;SDS011;72396;45.194;9.142;2024-01-16T01:22:33;45.63;;;23.55;;
79130;SDS011;72396;45.194;9.142;2024-01-16T01:24:58;41.80;;;22.58;;
79130;SDS011;72396;45.194;9.142;2024-01-16T01:27:23;35.17;;;19.70;;
79130;SDS011;72396;45.194;9.142;2024-01-16T01:29:48;44.15;;;22.35;;
79130;SDS011;72396;45.194;9.142;2024-01-16T01:32:14;43.88;;;23.02;;
79130;SDS011;72396;45.194;9.142;2024-01-16T01:34:41;41.47;;;21.48;;
79130;SDS011;72396;45.194;9.142;2024-01-16T01:37:07;46.63;;;23.58;;
79130;SDS011;72396;45.194;9.142;2024-01-16T01:39:32;42.08;;;23.40;;
79130;SDS011;72396;45.194;9.142;2024-01-16T01:41:58;45.65;;;23.30;;
79130;SDS011;72396;45.194;9.142;2024-01-16T01:44:23;43.67;;;22.80;;
79130;SDS011;72396;45.194;9.142;2024-01-16T01:46:49;45.80;;;24.10;;
79130;SDS011;72396;45.194;9.142;2024-01-16T01:49:15;44.15;;;23.27;;
79130;SDS011;72396;45.194;9.142;2024-01-16T01:51:41;43.55;;;23.27;;
79130;SDS011;72396;45.194;9.142;2024-01-16T01:54:07;45.42;;;24.65;;
79130;SDS011;72396;45.194;9.142;2024-01-16T01:56:34;48.78;;;24.23;;
79130;SDS011;72396;45.194;9.142;2024-01-16T01:59:00;40.28;;;23.15;;
79130;SDS011;72396;45.194;9.142;2024-01-16T02:01:27;49.28;;;25.05;;
79130;SDS011;72396;45.194;9.142;2024-01-16T02:03:54;46.03;;;24.33;;
79130;SDS011;72396;45.194;9.142;2024-01-16T02:06:20;47.10;;;24.83;;
79130;SDS011;72396;45.194;9.142;2024-01-16T02:08:45;39.60;;;23.52;;
79130;SDS011;72396;45.194;9.142;2024-01-16T02:11:11;42.92;;;24.35;;
79130;SDS011;72396;45.194;9.142;2024-01-16T02:13:37;41.65;;;22.77;;
79130;SDS011;72396;45.194;9.142;2024-01-16T02:16:02;42.05;;;23.27;;
79130;SDS011;72396;45.194;9.142;2024-01-16T02:18:28;42.58;;;23.30;;
79130;SDS011;72396;45.194;9.142;2024-01-16T02:20:59;45.22;;;23.88;;
79130;SDS011;72396;45.194;9.142;2024-01-16T02:23:28;42.35;;;23.38;;
79130;SDS011;72396;45.194;9.142;2024-01-16T02:25:54;43.50;;;24.70;;
79130;SDS011;72396;45.194;9.142;2024-01-16T02:28:20;37.13;;;22.27;;
79130;SDS011;72396;45.194;9.142;2024-01-16T02:30:45;44.35;;;23.20;;
79130;SDS011;72396;45.194;9.142;2024-01-16T02:33:11;42.85;;;23.98;;
79130;SDS011;72396;45.194;9.142;2024-01-16T02:35:37;44.25;;;22.60;;
79130;SDS011;72396;45.194;9.142;2024-01-16T02:38:02;42.58;;;22.63;;
79130;SDS011;72396;45.194;9.142;2024-01-16T02:40:27;43.97;;;21.63;;
79130;SDS011;72396;45.194;9.142;2024-01-16T02:42:53;39.45;;;21.08;;
79130;SDS011;72396;45.194;9.142;2024-01-16T02:45:18;40.88;;;21.85;;
79130;SDS011;72396;45.194;9.142;2024-01-16T02:47:43;39.78;;;20.52;;
79130;SDS011;72396;45.194;9.142;2024-01-16T02:50:09;40.65;;;20.70;;
79130;SDS011;72396;45.194;9.142;2024-01-16T02:52:37;39.08;;;20.88;;
79130;SDS011;72396;45.194;9.142;2024-01-16T02:55:02;37.80;;;21.58;;
79130;SDS011;72396;45.194;9.142;2024-01-16T02:57:28;36.97;;;20.45;;
79130;SDS011;72396;45.194;9.142;2024-01-16T02:59:53;38.22;;;22.33;;
79130;SDS011;72396;45.194;9.142;2024-01-16T03:02:19;35.35;;;20.95;;
79130;SDS011;72396;45.194;9.142;2024-01-16T03:04:44;37.67;;;21.38;;
79130;SDS011;72396;45.194;9.142;2024-01-16T03:07:09;36.15;;;21.40;;
79130;SDS011;72396;45.194;9.142;2024-01-16T03:09:34;39.63;;;21.98;;
79130;SDS011;72396;45.194;9.142;2024-01-16T03:12:00;34.40;;;19.05;;
79130;SDS011;72396;45.194;9.142;2024-01-16T03:14:25;37.38;;;21.17;;
79130;SDS011;72396;45.194;9.142;2024-01-16T03:16:50;34.22;;;20.50;;
79130;SDS011;72396;45.194;9.142;2024-01-16T03:19:16;37.08;;;20.42;;
79130;SDS011;72396;45.194;9.142;2024-01-16T03:21:41;34.58;;;20.05;;
79130;SDS011;72396;45.194;9.142;2024-01-16T03:24:07;34.42;;;19.30;;
79130;SDS011;72396;45.194;9.142;2024-01-16T03:26:35;35.35;;;20.10;;
79130;SDS011;72396;45.194;9.142;2024-01-16T03:29:02;35.92;;;19.85;;
79130;SDS011;72396;45.194;9.142;2024-01-16T03:31:27;37.85;;;20.50;;
79130;SDS011;72396;45.194;9.142;2024-01-16T03:33:53;33.83;;;20.23;;
79130;SDS011;72396;45.194;9.142;2024-01-16T03:36:18;30.45;;;18.98;;
79130;SDS011;72396;45.194;9.142;2024-01-16T03:38:43;33.05;;;18.90;;
79130;SDS011;72396;45.194;9.142;2024-01-16T03:41:10;32.55;;;18.55;;
79130;SDS011;72396;45.194;9.142;2024-01-16T03:43:36;31.55;;;18.88;;
79130;SDS011;72396;45.194;9.142;2024-01-16T03:46:01;32.10;;;17.50;;
79130;SDS011;72396;45.194;9.142;2024-01-16T03:48:27;36.67;;;19.23;;
79130;SDS011;72396;45.194;9.142;2024-01-16T03:50:52;34.60;;;18.00;;
79130;SDS011;72396;45.194;9.142;2024-01-16T03:53:19;25.90;;;16.60;;
79130;SDS011;72396;45.194;9.142;2024-01-16T03:55:45;31.58;;;17.20;;
79130;SDS011;72396;45.194;9.142;2024-01-16T03:58:10;31.00;;;17.08;;
79130;SDS011;72396;45.194;9.142;2024-01-16T04:00:35;28.90;;;16.65;;
79130;SDS011;72396;45.194;9.142;2024-01-16T04:03:01;29.92;;;18.38;;
79130;SDS011;72396;45.194;9.142;2024-01-16T04:05:27;30.50;;;18.75;;
79130;SDS011;72396;45.194;9.142;2024-01-16T04:07:52;32.95;;;18.75;;
79130;SDS011;72396;45.194;9.142;2024-01-16T04:10:17;31.88;;;17.65;;
79130;SDS011;72396;45.194;9.142;2024-01-16T04:12:43;31.77;;;17.55;;
79130;SDS011;72396;45.194;9.142;2024-01-16T04:15:09;28.73;;;17.58;;
79130;SDS011;72396;45.194;9.142;2024-01-16T04:17:34;30.65;;;18.67;;
79130;SDS011;72396;45.194;9.142;2024-01-16T04:19:59;31.95;;;18.77;;
79130;SDS011;72396;45.194;9.142;2024-01-16T04:22:25;31.67;;;19.08;;
79130;SDS011;72396;45.194;9.142;2024-01-16T04:24:50;33.10;;;18.60;;
79130;SDS011;72396;45.194;9.142;2024-01-16T04:27:15;33.75;;;20.27;;
79130;SDS011;72396;45.194;9.142;2024-01-16T04:29:41;36.65;;;19.85;;
79130;SDS011;72396;45.194;9.142;2024-01-16T04:32:06;35.80;;;19.55;;
79130;SDS011;72396;45.194;9.142;2024-01-16T04:34:32;34.95;;;18.92;;
79130;SDS011;72396;45.194;9.142;2024-01-16T04:36:57;33.38;;;18.58;;
79130;SDS011;72396;45.194;9.142;2024-01-16T04:39:22;33.58;;;18.67;;
79130;SDS011;72396;45.194;9.142;2024-01-16T04:41:48;40.35;;;19.73;;
79130;SDS011;72396;45.194;9.142;2024-01-16T04:44:14;37.20;;;19.73;;
79130;SDS011;72396;45.194;9.142;2024-01-16T04:46:39;32.90;;;19.38;;
79130;SDS011;72396;45.194;9.142;2024-01-16T04:49:05;38.38;;;19.92;;
79130;SDS011;72396;45.194;9.142;2024-01-16T04:51:30;30.83;;;18.60;;
79130;SDS011;72396;45.194;9.142;2024-01-16T04:53:55;37.50;;;20.17;;
79130;SDS011;72396;45.194;9.142;2024-01-16T04:56:21;37.08;;;19.98;;
79130;SDS011;72396;45.194;9.142;2024-01-16T04:58:46;35.65;;;19.98;;
79130;SDS011;72396;45.194;9.142;2024-01-16T05:01:12;34.42;;;19.90;;
79130;SDS011;72396;45.194;9.142;2024-01-16T05:03:38;38.35;;;20.92;;
79130;SDS011;72396;45.194;9.142;2024-01-16T05:06:03;38.42;;;21.00;;
79130;SDS011;72396;45.194;9.142;2024-01-16T05:08:28;35.20;;;21.27;;
79130;SDS011;72396;45.194;9.142;2024-01-16T05:10:55;35.90;;;19.95;;
79130;SDS011;72396;45.194;9.142;2024-01-16T05:13:21;39.80;;;20.15;;
79130;SDS011;72396;45.194;9.142;2024-01-16T05:15:46;39.05;;;20.30;;
79130;SDS011;72396;45.194;9.142;2024-01-16T05:18:12;38.50;;;21.67;;
79130;SDS011;72396;45.194;9.142;2024-01-16T05:20:37;33.67;;;19.77;;
79130;SDS011;72396;45.194;9.142;2024-01-16T05:23:02;40.05;;;21.27;;
79130;SDS011;72396;45.194;9.142;2024-01-16T05:25:28;37.40;;;20.17;;
79130;SDS011;72396;45.194;9.142;2024-01-16T05:27:53;40.35;;;21.23;;
79130;SDS011;72396;45.194;9.142;2024-01-16T05:30:19;39.47;;;22.05;;
79130;SDS011;72396;45.194;9.142;2024-01-16T05:32:44;37.95;;;20.83;;
79130;SDS011;72396;45.194;9.142;2024-01-16T05:35:10;41.90;;;21.70;;
79130;SDS011;72396;45.194;9.142;2024-01-16T05:37:35;40.63;;;22.08;;
79130;SDS011;72396;45.194;9.142;2024-01-16T05:40:01;41.53;;;22.65;;
79130;SDS011;72396;45.194;9.142;2024-01-16T05:42:28;44.83;;;22.55;;
79130;SDS011;72396;45.194;9.142;2024-01-16T05:44:53;39.53;;;21.65;;
79130;SDS011;72396;45.194;9.142;2024-01-16T05:47:18;39.30;;;22.20;;
79130;SDS011;72396;45.194;9.142;2024-01-16T05:49:44;41.92;;;23.45;;
79130;SDS011;72396;45.194;9.142;2024-01-16T05:52:09;43.97;;;23.92;;
79130;SDS011;72396;45.194;9.142;2024-01-16T05:54:35;42.08;;;22.63;;
79130;SDS011;72396;45.194;9.142;2024-01-16T05:57:00;39.05;;;22.27;;
79130;SDS011;72396;45.194;9.142;2024-01-16T05:59:25;43.40;;;22.88;;
79130;SDS011;72396;45.194;9.142;2024-01-16T06:01:51;42.17;;;23.40;;
79130;SDS011;72396;45.194;9.142;2024-01-16T06:04:16;42.25;;;22.63;;
79130;SDS011;72396;45.194;9.142;2024-01-16T06:06:41;42.65;;;23.80;;
79130;SDS011;72396;45.194;9.142;2024-01-16T06:09:12;40.72;;;23.00;;
79130;SDS011;72396;45.194;9.142;2024-01-16T06:11:39;46.95;;;23.10;;
79130;SDS011;72396;45.194;9.142;2024-01-16T06:14:06;42.30;;;23.10;;
79130;SDS011;72396;45.194;9.142;2024-01-16T06:16:31;41.50;;;23.33;;
79130;SDS011;72396;45.194;9.142;2024-01-16T06:18:57;42.40;;;22.85;;
79130;SDS011;72396;45.194;9.142;2024-01-16T06:21:22;38.95;;;21.55;;
79130;SDS011;72396;45.194;9.142;2024-01-16T06:23:48;42.25;;;22.65;;
79130;SDS011;72396;45.194;9.142;2024-01-16T06:26:13;39.95;;;20.92;;
79130;SDS011;72396;45.194;9.142;2024-01-16T06:28:39;46.30;;;22.95;;
79130;SDS011;72396;45.194;9.142;2024-01-16T06:31:07;42.13;;;22.80;;
79130;SDS011;72396;45.194;9.142;2024-01-16T06:33:32;41.63;;;21.33;;
79130;SDS011;72396;45.194;9.142;2024-01-16T06:35:57;36.42;;;20.85;;
79130;SDS011;72396;45.194;9.142;2024-01-16T06:38:23;40.25;;;21.75;;
79130;SDS011;72396;45.194;9.142;2024-01-16T06:40:48;40.63;;;20.88;;
79130;SDS011;72396;45.194;9.142;2024-01-16T06:43:14;37.95;;;21.95;;
79130;SDS011;72396;45.194;9.142;2024-01-16T06:45:41;43.58;;;22.48;;
79130;SDS011;72396;45.194;9.142;2024-01-16T06:48:07;39.30;;;21.20;;
79130;SDS011;72396;45.194;9.142;2024-01-16T06:50:33;42.38;;;22.15;;
79130;SDS011;72396;45.194;9.142;2024-01-16T06:52:58;43.85;;;22.25;;
79130;SDS011;72396;45.194;9.142;2024-01-16T06:55:23;41.03;;;21.10;;
79130;SDS011;72396;45.194;9.142;2024-01-16T06:57:48;38.75;;;22.08;;
79130;SDS011;72396;45.194;9.142;2024-01-16T07:00:14;41.80;;;22.08;;
79130;SDS011;72396;45.194;9.142;2024-01-16T07:02:40;45.00;;;23.80;;
79130;SDS011;72396;45.194;9.142;2024-01-16T07:05:08;43.10;;;20.98;;
79130;SDS011;72396;45.194;9.142;2024-01-16T07:07:36;45.72;;;23.80;;
79130;SDS011;72396;45.194;9.142;2024-01-16T07:10:01;40.53;;;22.10;;
79130;SDS011;72396;45.194;9.142;2024-01-16T07:12:27;37.03;;;20.90;;
79130;SDS011;72396;45.194;9.142;2024-01-16T07:14:53;42.35;;;22.05;;
79130;SDS011;72396;45.194;9.142;2024-01-16T07:17:18;40.45;;;22.42;;
79130;SDS011;72396;45.194;9.142;2024-01-16T07:19:44;44.65;;;22.75;;
79130;SDS011;72396;45.194;9.142;2024-01-16T07:22:09;45.60;;;23.42;;
79130;SDS011;72396;45.194;9.142;2024-01-16T07:24:34;43.25;;;20.85;;
79130;SDS011;72396;45.194;9.142;2024-01-16T07:27:00;47.97;;;23.17;;
79130;SDS011;72396;45.194;9.142;2024-01-16T07:29:25;48.20;;;23.90;;
79130;SDS011;72396;45.194;9.142;2024-01-16T07:31:50;39.63;;;22.80;;
79130;SDS011;72396;45.194;9.142;2024-01-16T07:34:17;46.08;;;22.60;;
79130;SDS011;72396;45.194;9.142;2024-01-16T07:36:46;44.45;;;22.83;;
79130;SDS011;72396;45.194;9.142;2024-01-16T07:39:12;49.60;;;22.75;;
79130;SDS011;72396;45.194;9.142;2024-01-16T07:41:37;45.22;;;23.88;;
79130;SDS011;72396;45.194;9.142;2024-01-16T07:44:03;44.42;;;23.45;;
79130;SDS011;72396;45.194;9.142;2024-01-16T07:46:28;46.17;;;24.55;;
79130;SDS011;72396;45.194;9.142;2024-01-16T07:48:53;40.22;;;22.70;;
79130;SDS011;72396;45.194;9.142;2024-01-16T07:51:19;44.75;;;24.05;;
79130;SDS011;72396;45.194;9.142;2024-01-16T07:53:44;45.28;;;24.40;;
79130;SDS011;72396;45.194;9.142;2024-01-16T07:56:10;48.78;;;24.88;;
79130;SDS011;72396;45.194;9.142;2024-01-16T07:58:36;44.33;;;22.05;;
79130;SDS011;72396;45.194;9.142;2024-01-16T08:01:02;42.38;;;23.70;;
79130;SDS011;72396;45.194;9.142;2024-01-16T08:03:27;45.85;;;24.65;;
79130;SDS011;72396;45.194;9.142;2024-01-16T08:05:53;43.65;;;23.58;;
79130;SDS011;72396;45.194;9.142;2024-01-16T08:08:18;44.88;;;23.77;;
79130;SDS011;72396;45.194;9.142;2024-01-16T08:10:44;44.83;;;24.65;;
79130;SDS011;72396;45.194;9.142;2024-01-16T08:13:09;38.45;;;22.40;;
79130;SDS011;72396;45.194;9.142;2024-01-16T08:15:35;42.50;;;22.38;;
79130;SDS011;72396;45.194;9.142;2024-01-16T08:18:02;39.75;;;22.58;;
79130;SDS011;72396;45.194;9.142;2024-01-16T08:20:27;43.33;;;22.55;;
79130;SDS011;72396;45.194;9.142;2024-01-16T08:22:53;48.13;;;23.52;;
79130;SDS011;72396;45.194;9.142;2024-01-16T08:25:18;41.42;;;22.52;;
79130;SDS011;72396;45.194;9.142;2024-01-16T08:27:43;49.33;;;23.88;;
79130;SDS011;72396;45.194;9.142;2024-01-16T08:30:09;42.45;;;22.42;;
79130;SDS011;72396;45.194;9.142;2024-01-16T08:32:36;44.88;;;23.33;;
79130;SDS011;72396;45.194;9.142;2024-01-16T08:35:01;45.60;;;24.95;;
79130;SDS011;72396;45.194;9.142;2024-01-16T08:37:27;51.53;;;24.67;;
79130;SDS011;72396;45.194;9.142;2024-01-16T08:39:53;43.50;;;22.20;;
79130;SDS011;72396;45.194;9.142;2024-01-16T08:42:18;53.00;;;25.95;;
79130;SDS011;72396;45.194;9.142;2024-01-16T08:44:43;45.58;;;24.40;;
79130;SDS011;72396;45.194;9.142;2024-01-16T08:47:09;45.78;;;24.63;;
79130;SDS011;72396;45.194;9.142;2024-01-16T08:49:34;47.28;;;24.55;;
79130;SDS011;72396;45.194;9.142;2024-01-16T08:52:00;54.05;;;24.63;;
79130;SDS011;72396;45.194;9.142;2024-01-16T08:54:26;49.40;;;24.60;;
79130;SDS011;72396;45.194;9.142;2024-01-16T08:56:51;50.63;;;26.73;;
79130;SDS011;72396;45.194;9.142;2024-01-16T08:59:17;55.42;;;26.77;;
79130;SDS011;72396;45.194;9.142;2024-01-16T09:01:43;48.58;;;26.52;;
79130;SDS011;72396;45.194;9.142;2024-01-16T09:04:08;54.92;;;27.20;;
79130;SDS011;72396;45.194;9.142;2024-01-16T09:06:34;49.35;;;26.10;;
79130;SDS011;72396;45.194;9.142;2024-01-16T09:08:59;53.63;;;27.55;;
79130;SDS011;72396;45.194;9.142;2024-01-16T09:11:24;55.50;;;26.17;;
79130;SDS011;72396;45.194;9.142;2024-01-16T09:13:50;51.72;;;27.40;;
79130;SDS011;72396;45.194;9.142;2024-01-16T09:16:15;46.35;;;26.13;;
79130;SDS011;72396;45.194;9.142;2024-01-16T09:18:40;52.42;;;25.77;;
79130;SDS011;72396;45.194;9.142;2024-01-16T09:21:06;54.92;;;27.52;;
79130;SDS011;72396;45.194;9.142;2024-01-16T09:23:31;51.85;;;26.27;;
79130;SDS011;72396;45.194;9.142;2024-01-16T09:25:56;54.53;;;26.83;;
79130;SDS011;72396;45.194;9.142;2024-01-16T09:28:22;50.78;;;26.23;;
79130;SDS011;72396;45.194;9.142;2024-01-16T09:30:47;55.58;;;26.67;;
79130;SDS011;72396;45.194;9.142;2024-01-16T09:33:12;56.13;;;26.98;;
79130;SDS011;72396;45.194;9.142;2024-01-16T09:35:38;56.22;;;26.88;;
79130;SDS011;72396;45.194;9.142;2024-01-16T09:38:03;51.80;;;25.20;;
79130;SDS011;72396;45.194;9.142;2024-01-16T09:40:32;55.22;;;27.75;;
79130;SDS011;72396;45.194;9.142;2024-01-16T09:42:57;54.25;;;27.70;;
79130;SDS011;72396;45.194;9.142;2024-01-16T09:45:22;56.55;;;28.00;;
79130;SDS011;72396;45.194;9.142;2024-01-16T09:47:50;55.33;;;28.27;;
79130;SDS011;72396;45.194;9.142;2024-01-16T09:50:17;59.85;;;29.35;;
79130;SDS011;72396;45.194;9.142;2024-01-16T09:52:45;57.85;;;27.77;;
79130;SDS011;72396;45.194;9.142;2024-01-16T09:55:11;52.35;;;27.90;;
79130;SDS011;72396;45.194;9.142;2024-01-16T09:57:37;56.97;;;27.55;;
79130;SDS011;72396;45.194;9.142;2024-01-16T10:00:05;57.67;;;29.25;;
79130;SDS011;72396;45.194;9.142;2024-01-16T10:02:37;56.60;;;29.17;;
79130;SDS011;72396;45.194;9.142;2024-01-16T10:05:07;59.75;;;28.63;;
79130;SDS011;72396;45.194;9.142;2024-01-16T10:07:34;60.10;;;29.80;;
79130;SDS011;72396;45.194;9.142;2024-01-16T10:10:02;63.78;;;29.85;;
79130;SDS011;72396;45.194;9.142;2024-01-16T10:12:28;62.63;;;28.52;;
79130;SDS011;72396;45.194;9.142;2024-01-16T10:14:53;59.60;;;28.95;;
79130;SDS011;72396;45.194;9.142;2024-01-16T10:17:19;55.58;;;27.17;;
79130;SDS011;72396;45.194;9.142;2024-01-16T10:19:51;56.22;;;29.15;;
79130;SDS011;72396;45.194;9.142;2024-01-16T10:22:21;58.03;;;28.23;;
79130;SDS011;72396;45.194;9.142;2024-01-16T10:24:49;57.83;;;27.08;;
79130;SDS011;72396;45.194;9.142;2024-01-16T10:27:15;56.17;;;28.67;;
79130;SDS011;72396;45.194;9.142;2024-01-16T10:29:55;55.50;;;28.10;;
79130;SDS011;72396;45.194;9.142;2024-01-16T10:32:28;55.42;;;27.40;;
79130;SDS011;72396;45.194;9.142;2024-01-16T10:35:02;49.33;;;23.77;;
79130;SDS011;72396;45.194;9.142;2024-01-16T10:37:48;36.75;;;18.52;;
79130;SDS011;72396;45.194;9.142;2024-01-16T10:40:17;35.80;;;19.23;;
79130;SDS011;72396;45.194;9.142;2024-01-16T10:42:44;38.97;;;17.70;;
79130;SDS011;72396;45.194;9.142;2024-01-16T10:45:17;40.83;;;20.17;;
79130;SDS011;72396;45.194;9.142;2024-01-16T10:47:44;37.28;;;19.63;;
79130;SDS011;72396;45.194;9.142;2024-01-16T10:50:11;39.47;;;19.83;;
79130;SDS011;72396;45.194;9.142;2024-01-16T10:52:38;36.20;;;18.75;;
79130;SDS011;72396;45.194;9.142;2024-01-16T10:55:24;41.90;;;18.60;;
79130;SDS011;72396;45.194;9.142;2024-01-16T10:57:55;30.88;;;19.00;;
79130;SDS011;72396;45.194;9.142;2024-01-16T11:00:21;38.22;;;18.75;;
79130;SDS011;72396;45.194;9.142;2024-01-16T11:05:34;36.35;;;20.05;;
79130;SDS011;72396;45.194;9.142;2024-01-16T11:08:02;42.83;;;21.20;;
79130;SDS011;72396;45.194;9.142;2024-01-16T11:10:31;39.70;;;19.98;;
79130;SDS011;72396;45.194;9.142;2024-01-16T11:12:59;43.22;;;20.98;;
79130;SDS011;72396;45.194;9.142;2024-01-16T11:15:25;40.60;;;20.60;;
79130;SDS011;72396;45.194;9.142;2024-01-16T11:17:53;39.45;;;21.10;;
79130;SDS011;72396;45.194;9.142;2024-01-16T11:20:20;42.58;;;20.30;;
79130;SDS011;72396;45.194;9.142;2024-01-16T11:22:46;42.72;;;21.73;;
79130;SDS011;72396;45.194;9.142;2024-01-16T11:25:13;46.00;;;22.42;;
79130;SDS011;72396;45.194;9.142;2024-01-16T11:27:41;50.33;;;20.95;;
79130;SDS011;72396;45.194;9.142;2024-01-16T11:30:08;43.38;;;21.42;;
79130;SDS011;72396;45.194;9.142;2024-01-16T11:32:35;45.05;;;21.30;;
79130;SDS011;72396;45.194;9.142;2024-01-16T11:35:05;44.03;;;20.70;;
79130;SDS011;72396;45.194;9.142;2024-01-16T11:37:32;52.63;;;22.73;;
79130;SDS011;72396;45.194;9.142;2024-01-16T11:40:41;46.90;;;21.90;;
79130;SDS011;72396;45.194;9.142;2024-01-16T11:42:48;50.65;;;22.95;;
79130;SDS011;72396;45.194;9.142;2024-01-16T11:45:48;52.03;;;23.20;;
79130;SDS011;72396;45.194;9.142;2024-01-16T11:48:13;46.78;;;23.15;;
79130;SDS011;72396;45.194;9.142;2024-01-16T11:50:40;47.53;;;22.00;;
79130;SDS011;72396;45.194;9.142;2024-01-16T11:53:05;45.97;;;22.65;;
79130;SDS011;72396;45.194;9.142;2024-01-16T11:55:32;58.92;;;24.08;;
79130;SDS011;72396;45.194;9.142;2024-01-16T11:58:09;45.17;;;22.98;;
79130;SDS011;72396;45.194;9.142;2024-01-16T12:00:36;50.58;;;23.38;;
79130;SDS011;72396;45.194;9.142;2024-01-16T12:03:06;51.72;;;23.88;;
79130;SDS011;72396;45.194;9.142;2024-01-16T12:05:33;44.10;;;23.20;;
79130;SDS011;72396;45.194;9.142;2024-01-16T12:07:58;45.08;;;22.40;;
79130;SDS011;72396;45.194;9.142;2024-01-16T12:10:24;49.55;;;23.48;;
79130;SDS011;72396;45.194;9.142;2024-01-16T12:12:50;45.67;;;24.10;;
79130;SDS011;72396;45.194;9.142;2024-01-16T12:15:21;45.60;;;22.88;;
79130;SDS011;72396;45.194;9.142;2024-01-16T12:17:56;54.42;;;25.17;;
79130;SDS011;72396;45.194;9.142;2024-01-16T12:20:24;45.00;;;22.75;;
79130;SDS011;72396;45.194;9.142;2024-01-16T12:25:20;46.33;;;22.92;;
79130;SDS011;72396;45.194;9.142;2024-01-16T12:27:46;48.80;;;22.33;;
79130;SDS011;72396;45.194;9.142;2024-01-16T12:30:18;42.03;;;21.35;;
79130;SDS011;72396;45.194;9.142;2024-01-16T12:32:44;47.50;;;21.60;;
79130;SDS011;72396;45.194;9.142;2024-01-16T12:35:09;44.67;;;21.50;;
79130;SDS011;72396;45.194;9.142;2024-01-16T12:37:35;43.83;;;20.85;;
79130;SDS011;72396;45.194;9.142;2024-01-16T12:40:00;39.80;;;20.05;;
79130;SDS011;72396;45.194;9.142;2024-01-16T12:42:26;44.00;;;21.45;;
79130;SDS011;72396;45.194;9.142;2024-01-16T12:44:51;38.42;;;20.13;;
79130;SDS011;72396;45.194;9.142;2024-01-16T12:47:16;35.72;;;19.65;;
79130;SDS011;72396;45.194;9.142;2024-01-16T12:49:44;37.08;;;21.25;;
79130;SDS011;72396;45.194;9.142;2024-01-16T12:52:20;39.88;;;19.73;;
79130;SDS011;72396;45.194;9.142;2024-01-16T12:54:58;36.67;;;18.55;;
79130;SDS011;72396;45.194;9.142;2024-01-16T12:57:25;34.08;;;18.38;;
79130;SDS011;72396;45.194;9.142;2024-01-16T12:59:51;41.20;;;20.02;;
79130;SDS011;72396;45.194;9.142;2024-01-16T13:02:23;40.28;;;19.05;;
79130;SDS011;72396;45.194;9.142;2024-01-16T13:04:56;39.17;;;19.20;;
79130;SDS011;72396;45.194;9.142;2024-01-16T13:07:25;41.72;;;19.15;;
79130;SDS011;72396;45.194;9.142;2024-01-16T13:10:05;36.08;;;20.30;;
79130;SDS011;72396;45.194;9.142;2024-01-16T13:12:31;36.90;;;19.65;;
79130;SDS011;72396;45.194;9.142;2024-01-16T13:14:58;41.17;;;19.65;;
79130;SDS011;72396;45.194;9.142;2024-01-16T13:17:24;43.55;;;19.25;;
79130;SDS011;72396;45.194;9.142;2024-01-16T13:19:49;42.15;;;19.98;;
79130;SDS011;72396;45.194;9.142;2024-01-16T13:22:15;41.78;;;18.98;;
79130;SDS011;72396;45.194;9.142;2024-01-16T13:24:40;43.33;;;21.17;;
79130;SDS011;72396;45.194;9.142;2024-01-16T13:27:05;50.88;;;21.65;;
79130;SDS011;72396;45.194;9.142;2024-01-16T13:29:34;43.30;;;19.13;;
79130;SDS011;72396;45.194;9.142;2024-01-16T13:32:03;40.35;;;21.55;;
79130;SDS011;72396;45.194;9.142;2024-01-16T13:34:31;40.58;;;19.23;;
79130;SDS011;72396;45.194;9.142;2024-01-16T13:36:57;44.83;;;20.83;;
79130;SDS011;72396;45.194;9.142;2024-01-16T13:39:26;47.50;;;20.90;;
79130;SDS011;72396;45.194;9.142;2024-01-16T13:41:52;40.63;;;19.70;;
79130;SDS011;72396;45.194;9.142;2024-01-16T13:44:18;41.67;;;18.10;;
79130;SDS011;72396;45.194;9.142;2024-01-16T13:46:43;45.10;;;20.50;;
79130;SDS011;72396;45.194;9.142;2024-01-16T13:49:09;43.15;;;18.98;;
79130;SDS011;72396;45.194;9.142;2024-01-16T13:51:34;36.10;;;19.13;;
79130;SDS011;72396;45.194;9.142;2024-01-16T13:54:00;40.40;;;19.38;;
79130;SDS011;72396;45.194;9.142;2024-01-16T13:56:25;39.55;;;18.30;;
79130;SDS011;72396;45.194;9.142;2024-01-16T13:58:51;41.95;;;19.88;;
79130;SDS011;72396;45.194;9.142;2024-01-16T14:01:16;46.50;;;19.95;;
79130;SDS011;72396;45.194;9.142;2024-01-16T14:03:42;42.05;;;20.63;;
79130;SDS011;72396;45.194;9.142;2024-01-16T14:06:08;44.05;;;19.02;;
79130;SDS011;72396;45.194;9.142;2024-01-16T14:08:33;45.20;;;19.90;;
79130;SDS011;72396;45.194;9.142;2024-01-16T14:10:59;38.08;;;19.13;;
79130;SDS011;72396;45.194;9.142;2024-01-16T14:13:24;42.70;;;18.92;;
79130;SDS011;72396;45.194;9.142;2024-01-16T14:15:50;38.88;;;18.65;;
79130;SDS011;72396;45.194;9.142;2024-01-16T14:18:16;45.92;;;19.52;;
79130;SDS011;72396;45.194;9.142;2024-01-16T14:20:41;47.17;;;20.45;;
79130;SDS011;72396;45.194;9.142;2024-01-16T14:23:07;42.22;;;19.90;;